createdAt,value
2018-11-14T00:00:44.810Z,0
2018-11-14T00:01:44.296Z,0
2018-11-14T00:02:44.859Z,0
2018-11-14T00:03:44.867Z,0
2018-11-14T00:04:44.898Z,0
2018-11-14T00:05:44.922Z,0
2018-11-14T00:06:44.670Z,0
2018-11-14T00:07:44.434Z,0
2018-11-14T00:08:44.971Z,0
2018-11-14T00:09:44.554Z,0
2018-11-14T00:10:44.765Z,0
2018-11-14T00:11:44.517Z,0
2018-11-14T00:12:45.070Z,0
2018-11-14T00:13:45.079Z,0
2018-11-14T00:14:44.566Z,0
2018-11-14T00:15:44.857Z,0
2018-11-14T00:16:44.896Z,0
2018-11-14T00:17:45.160Z,0
2018-11-14T00:18:45.198Z,0
2018-11-14T00:19:44.958Z,0
2018-11-14T00:20:44.971Z,0
2018-11-14T00:21:45.456Z,0
2018-11-14T00:22:45.324Z,0
2018-11-14T00:23:44.757Z,0
2018-11-14T00:24:45.155Z,0
2018-11-14T00:25:45.072Z,0
2018-11-14T00:26:44.864Z,0
2018-11-14T00:27:45.563Z,0
2018-11-14T00:28:45.406Z,0
2018-11-14T00:29:46.146Z,0
2018-11-14T00:30:45.187Z,0
2018-11-14T00:31:45.465Z,0
2018-11-14T00:32:45.227Z,0
2018-11-14T00:33:45.269Z,0
2018-11-14T00:34:45.755Z,0
2018-11-14T00:35:45.519Z,0
2018-11-14T00:36:45.321Z,0
2018-11-14T00:37:45.059Z,0
2018-11-14T00:38:45.092Z,0
2018-11-14T00:39:45.639Z,0
2018-11-14T00:40:45.396Z,0
2018-11-14T00:41:45.426Z,0
2018-11-14T00:42:46.066Z,0
2018-11-14T00:43:45.995Z,0
2018-11-14T00:44:45.746Z,0
2018-11-14T00:45:45.236Z,0
2018-11-14T00:46:45.783Z,0
2018-11-14T00:47:45.831Z,0
2018-11-14T00:48:45.298Z,0
2018-11-14T00:49:45.604Z,0
2018-11-14T00:50:45.336Z,0
2018-11-14T00:51:45.915Z,0
2018-11-14T00:52:45.647Z,0
2018-11-14T00:53:45.679Z,0
2018-11-14T00:54:46.016Z,0
2018-11-14T00:55:45.708Z,0
2018-11-14T00:56:46.017Z,0
2018-11-14T00:57:46.029Z,0
2018-11-14T00:58:46.056Z,0
2018-11-14T00:59:45.804Z,0
2018-11-14T01:00:45.819Z,0
2018-11-14T01:01:46.171Z,0
2018-11-14T01:02:46.141Z,0
2018-11-14T01:03:46.172Z,0
2018-11-14T01:04:45.922Z,0
2018-11-14T01:05:45.926Z,0
2018-11-14T01:06:45.959Z,0
2018-11-14T01:07:45.982Z,0
2018-11-14T01:08:45.734Z,0
2018-11-14T01:09:46.284Z,0
2018-11-14T01:10:46.045Z,0
2018-11-14T01:11:46.068Z,0
2018-11-14T01:12:46.080Z,0
2018-11-14T01:13:45.841Z,0
2018-11-14T01:14:46.129Z,0
2018-11-14T01:15:46.161Z,0
2018-11-14T01:16:46.438Z,0
2018-11-14T01:17:46.489Z,0
2018-11-14T01:18:46.247Z,0
2018-11-14T01:19:46.231Z,0
2018-11-14T01:20:46.263Z,0
2018-11-14T01:21:46.981Z,0
2018-11-14T01:22:46.583Z,0
2018-11-14T01:23:46.319Z,0
2018-11-14T01:24:46.360Z,0
2018-11-14T01:25:46.364Z,0
2018-11-14T01:26:46.922Z,0
2018-11-14T01:27:46.942Z,0
2018-11-14T01:28:46.428Z,0
2018-11-14T01:29:46.464Z,0
2018-11-14T01:30:46.223Z,0
2018-11-14T01:31:46.506Z,0
2018-11-14T01:32:46.509Z,0
2018-11-14T01:33:46.535Z,0
2018-11-14T01:34:46.298Z,0
2018-11-14T01:35:46.709Z,0
2018-11-14T01:36:46.599Z,0
2018-11-14T01:37:46.356Z,0
2018-11-14T01:38:46.661Z,0
2018-11-14T01:39:46.403Z,0
2018-11-14T01:40:46.950Z,0
2018-11-14T01:41:47.246Z,0
2018-11-14T01:42:47.007Z,0
2018-11-14T01:43:46.484Z,0
2018-11-14T01:44:46.783Z,0
2018-11-14T01:45:46.525Z,0
2018-11-14T01:46:46.842Z,0
2018-11-14T01:47:47.127Z,0
2018-11-14T01:48:46.856Z,0
2018-11-14T01:49:47.143Z,0
2018-11-14T01:50:47.175Z,0
2018-11-14T01:51:46.932Z,0
2018-11-14T01:52:47.242Z,0
2018-11-14T01:53:47.242Z,0
2018-11-14T01:54:47.280Z,0
2018-11-14T01:55:47.008Z,0
2018-11-14T01:56:47.323Z,0
2018-11-14T01:57:46.785Z,0
2018-11-14T01:58:47.357Z,0
2018-11-14T01:59:47.375Z,0
2018-11-14T02:00:46.864Z,0
2018-11-14T02:01:47.144Z,0
2018-11-14T02:02:47.435Z,0
2018-11-14T02:03:47.190Z,0
2018-11-14T02:04:47.220Z,0
2018-11-14T02:05:46.957Z,0
2018-11-14T02:06:47.265Z,0
2018-11-14T02:07:47.541Z,0
2018-11-14T02:08:47.312Z,0
2018-11-14T02:09:47.315Z,0
2018-11-14T02:10:47.623Z,0
2018-11-14T02:11:47.619Z,0
2018-11-14T02:12:47.395Z,0
2018-11-14T02:13:47.147Z,0
2018-11-14T02:14:47.416Z,0
2018-11-14T02:15:47.166Z,0
2018-11-14T02:16:47.466Z,0
2018-11-14T02:17:47.214Z,0
2018-11-14T02:18:47.766Z,0
2018-11-14T02:19:47.814Z,0
2018-11-14T02:20:47.277Z,0
2018-11-14T02:21:47.580Z,0
2018-11-14T02:22:47.590Z,0
2018-11-14T02:23:47.607Z,0
2018-11-14T02:24:47.360Z,0
2018-11-14T02:25:47.396Z,0
2018-11-14T02:26:47.934Z,0
2018-11-14T02:27:47.692Z,0
2018-11-14T02:28:47.985Z,0
2018-11-14T02:29:48.290Z,0
2018-11-14T02:30:48.321Z,0
2018-11-14T02:31:47.792Z,0
2018-11-14T02:32:48.071Z,0
2018-11-14T02:33:47.843Z,0
2018-11-14T02:34:47.853Z,0
2018-11-14T02:35:47.595Z,0
2018-11-14T02:36:47.913Z,0
2018-11-14T02:37:47.829Z,0
2018-11-14T02:38:47.932Z,0
2018-11-14T02:39:47.966Z,0
2018-11-14T02:40:47.997Z,0
2018-11-14T02:41:48.257Z,0
2018-11-14T02:42:47.752Z,0
2018-11-14T02:43:47.780Z,0
2018-11-14T02:44:47.801Z,0
2018-11-14T02:45:48.626Z,0
2018-11-14T02:46:48.369Z,0
2018-11-14T02:47:48.135Z,0
2018-11-14T02:48:48.416Z,0
2018-11-14T02:49:48.468Z,0
2018-11-14T02:50:48.449Z,0
2018-11-14T02:51:48.206Z,0
2018-11-14T02:52:48.263Z,0
2018-11-14T02:53:48.271Z,0
2018-11-14T02:54:48.275Z,0
2018-11-14T02:55:48.024Z,0
2018-11-14T02:56:48.588Z,0
2018-11-14T02:57:48.345Z,0
2018-11-14T02:58:48.621Z,0
2018-11-14T02:59:48.654Z,0
2018-11-14T03:00:48.664Z,0
2018-11-14T03:01:48.427Z,0
2018-11-14T03:02:48.457Z,0
2018-11-14T03:03:48.479Z,0
2018-11-14T03:04:48.771Z,0
2018-11-14T03:05:48.515Z,0
2018-11-14T03:06:48.532Z,0
2018-11-14T03:07:48.312Z,0
2018-11-14T03:08:48.566Z,0
2018-11-14T03:09:48.594Z,0
2018-11-14T03:10:48.891Z,0
2018-11-14T03:11:48.646Z,0
2018-11-14T03:12:48.654Z,0
2018-11-14T03:13:48.422Z,0
2018-11-14T03:14:48.721Z,0
2018-11-14T03:15:49.000Z,0
2018-11-14T03:16:49.026Z,0
2018-11-14T03:17:48.766Z,0
2018-11-14T03:18:48.796Z,0
2018-11-14T03:19:49.079Z,0
2018-11-14T03:20:48.825Z,0
2018-11-14T03:21:48.846Z,0
2018-11-14T03:22:49.152Z,0
2018-11-14T03:23:48.898Z,0
2018-11-14T03:24:48.913Z,0
2018-11-14T03:25:49.223Z,0
2018-11-14T03:26:49.239Z,0
2018-11-14T03:27:49.247Z,0
2018-11-14T03:28:49.011Z,0
2018-11-14T03:29:49.026Z,0
2018-11-14T03:30:48.774Z,0
2018-11-14T03:31:48.806Z,0
2018-11-14T03:32:49.655Z,0
2018-11-14T03:33:49.364Z,0
2018-11-14T03:34:49.153Z,0
2018-11-14T03:35:49.433Z,0
2018-11-14T03:36:49.452Z,0
2018-11-14T03:37:49.473Z,0
2018-11-14T03:38:49.211Z,0
2018-11-14T03:39:49.245Z,0
2018-11-14T03:40:49.516Z,0
2018-11-14T03:41:49.565Z,0
2018-11-14T03:42:49.585Z,0
2018-11-14T03:43:49.590Z,0
2018-11-14T03:44:49.604Z,0
2018-11-14T03:45:49.621Z,0
2018-11-14T03:46:49.379Z,0
2018-11-14T03:47:49.685Z,0
2018-11-14T03:48:49.687Z,0
2018-11-14T03:49:49.445Z,0
2018-11-14T03:50:49.736Z,0
2018-11-14T03:51:49.492Z,0
2018-11-14T03:52:49.771Z,0
2018-11-14T03:53:50.075Z,0
2018-11-14T03:54:49.294Z,0
2018-11-14T03:55:49.844Z,0
2018-11-14T03:56:49.855Z,0
2018-11-14T03:57:49.623Z,0
2018-11-14T03:58:49.364Z,0
2018-11-14T03:59:49.673Z,0
2018-11-14T04:00:49.688Z,0
2018-11-14T04:01:49.694Z,0
2018-11-14T04:02:49.459Z,0
2018-11-14T04:03:49.740Z,0
2018-11-14T04:04:49.769Z,0
2018-11-14T04:05:50.063Z,0
2018-11-14T04:06:49.811Z,0
2018-11-14T04:07:49.561Z,0
2018-11-14T04:08:49.599Z,0
2018-11-14T04:09:49.880Z,0
2018-11-14T04:10:49.631Z,0
2018-11-14T04:11:49.905Z,0
2018-11-14T04:12:49.939Z,0
2018-11-14T04:13:49.961Z,0
2018-11-14T04:14:49.970Z,0
2018-11-14T04:15:50.259Z,0
2018-11-14T04:16:49.756Z,0
2018-11-14T04:17:50.333Z,0
2018-11-14T04:18:50.607Z,0
2018-11-14T04:19:50.344Z,0
2018-11-14T04:20:49.835Z,0
2018-11-14T04:21:50.688Z,0
2018-11-14T04:22:50.456Z,0
2018-11-14T04:23:50.182Z,0
2018-11-14T04:24:50.184Z,0
2018-11-14T04:25:50.509Z,0
2018-11-14T04:26:50.758Z,0
2018-11-14T04:27:50.525Z,0
2018-11-14T04:28:50.010Z,0
2018-11-14T04:29:50.838Z,0
2018-11-14T04:30:50.340Z,0
2018-11-14T04:31:50.329Z,0
2018-11-14T04:32:50.088Z,0
2018-11-14T04:33:50.644Z,0
2018-11-14T04:34:50.676Z,0
2018-11-14T04:35:50.441Z,0
2018-11-14T04:36:50.703Z,0
2018-11-14T04:37:51.020Z,0
2018-11-14T04:38:50.214Z,0
2018-11-14T04:39:50.507Z,0
2018-11-14T04:40:50.792Z,0
2018-11-14T04:41:50.541Z,0
2018-11-14T04:42:50.320Z,0
2018-11-14T04:43:50.581Z,0
2018-11-14T04:44:50.604Z,0
2018-11-14T04:45:50.623Z,0
2018-11-14T04:46:50.925Z,0
2018-11-14T04:47:50.799Z,0
2018-11-14T04:48:50.699Z,0
2018-11-14T04:49:50.715Z,0
2018-11-14T04:50:51.018Z,0
2018-11-14T04:51:50.758Z,0
2018-11-14T04:52:50.525Z,0
2018-11-14T04:53:51.069Z,0
2018-11-14T04:54:51.090Z,0
2018-11-14T04:55:50.572Z,0
2018-11-14T04:56:51.404Z,0
2018-11-14T04:57:50.887Z,0
2018-11-14T04:58:51.444Z,0
2018-11-14T04:59:50.660Z,0
2018-11-14T05:00:50.667Z,0
2018-11-14T05:01:50.973Z,0
2018-11-14T05:02:51.254Z,0
2018-11-14T05:03:50.735Z,0
2018-11-14T05:04:51.023Z,0
2018-11-14T05:05:51.045Z,0
2018-11-14T05:06:51.097Z,0
2018-11-14T05:07:51.363Z,0
2018-11-14T05:08:51.127Z,0
2018-11-14T05:09:51.401Z,0
2018-11-14T05:10:51.163Z,0
2018-11-14T05:11:51.455Z,0
2018-11-14T05:12:50.997Z,0
2018-11-14T05:13:50.960Z,0
2018-11-14T05:14:51.778Z,0
2018-11-14T05:15:51.276Z,0
2018-11-14T05:16:51.277Z,0
2018-11-14T05:17:51.045Z,0
2018-11-14T05:18:51.318Z,0
2018-11-14T05:19:51.351Z,0
2018-11-14T05:20:51.894Z,0
2018-11-14T05:21:51.658Z,0
2018-11-14T05:22:51.980Z,0
2018-11-14T05:23:51.443Z,0
2018-11-14T05:24:52.085Z,0
2018-11-14T05:25:51.463Z,0
2018-11-14T05:26:51.488Z,0
2018-11-14T05:27:51.776Z,0
2018-11-14T05:28:51.521Z,0
2018-11-14T05:29:51.553Z,0
2018-11-14T05:30:51.865Z,0
2018-11-14T05:31:52.084Z,0
2018-11-14T05:32:51.614Z,0
2018-11-14T05:33:52.175Z,0
2018-11-14T05:34:51.665Z,0
2018-11-14T05:35:51.682Z,0
2018-11-14T05:36:51.704Z,0
2018-11-14T05:37:51.718Z,0
2018-11-14T05:38:52.031Z,0
2018-11-14T05:39:52.552Z,0
2018-11-14T05:40:51.524Z,0
2018-11-14T05:41:51.531Z,0
2018-11-14T05:42:51.820Z,0
2018-11-14T05:43:51.581Z,0
2018-11-14T05:44:51.591Z,0
2018-11-14T05:45:51.612Z,0
2018-11-14T05:46:51.903Z,0
2018-11-14T05:47:52.215Z,0
2018-11-14T05:48:51.967Z,0
2018-11-14T05:49:52.259Z,0
2018-11-14T05:50:51.985Z,0
2018-11-14T05:51:51.751Z,0
2018-11-14T05:52:52.584Z,0
2018-11-14T05:53:52.055Z,0
2018-11-14T05:54:52.215Z,0
2018-11-14T05:55:52.087Z,0
2018-11-14T05:56:52.383Z,0
2018-11-14T05:57:52.136Z,0
2018-11-14T05:58:52.164Z,0
2018-11-14T05:59:51.919Z,0
2018-11-14T06:00:52.477Z,0
2018-11-14T06:01:51.949Z,0
2018-11-14T06:02:52.239Z,0
2018-11-14T06:03:52.269Z,0
2018-11-14T06:04:52.024Z,0
2018-11-14T06:05:52.319Z,0
2018-11-14T06:06:52.328Z,0
2018-11-14T06:07:52.344Z,0
2018-11-14T06:08:52.110Z,0
2018-11-14T06:09:52.387Z,0
2018-11-14T06:10:52.685Z,0
2018-11-14T06:11:52.437Z,0
2018-11-14T06:12:52.445Z,0
2018-11-14T06:13:52.478Z,0
2018-11-14T06:14:53.042Z,0
2018-11-14T06:15:52.518Z,0
2018-11-14T06:16:52.525Z,4
2018-11-14T06:17:52.844Z,4
2018-11-14T06:18:52.592Z,0
2018-11-14T06:19:52.600Z,4
2018-11-14T06:20:53.155Z,4
2018-11-14T06:21:53.183Z,0
2018-11-14T06:22:52.651Z,4
2018-11-14T06:23:52.407Z,8
2018-11-14T06:24:53.237Z,8
2018-11-14T06:25:52.717Z,4
2018-11-14T06:26:52.477Z,8
2018-11-14T06:27:53.070Z,12
2018-11-14T06:28:53.333Z,12
2018-11-14T06:29:53.295Z,12
2018-11-14T06:30:53.141Z,16
2018-11-14T06:31:52.573Z,16
2018-11-14T06:32:52.885Z,20
2018-11-14T06:33:53.154Z,24
2018-11-14T06:34:52.655Z,24
2018-11-14T06:35:52.925Z,24
2018-11-14T06:36:52.952Z,32
2018-11-14T06:37:52.716Z,36
2018-11-14T06:38:52.990Z,36
2018-11-14T06:39:53.017Z,40
2018-11-14T06:40:53.060Z,44
2018-11-14T06:41:53.201Z,52
2018-11-14T06:42:53.337Z,52
2018-11-14T06:43:52.836Z,60
2018-11-14T06:44:53.114Z,64
2018-11-14T06:45:52.868Z,72
2018-11-14T06:46:53.164Z,76
2018-11-14T06:47:53.171Z,80
2018-11-14T06:48:53.193Z,88
2018-11-14T06:49:53.405Z,92
2018-11-14T06:50:53.233Z,96
2018-11-14T06:51:53.262Z,104
2018-11-14T06:52:53.593Z,112
2018-11-14T06:53:53.320Z,116
2018-11-14T06:54:53.329Z,120
2018-11-14T06:55:53.622Z,128
2018-11-14T06:56:53.373Z,132
2018-11-14T06:57:53.671Z,140
2018-11-14T06:58:54.046Z,152
2018-11-14T06:59:54.551Z,160
2018-11-14T07:00:53.447Z,168
2018-11-14T07:01:53.481Z,172
2018-11-14T07:02:53.779Z,184
2018-11-14T07:03:53.798Z,188
2018-11-14T07:04:53.926Z,200
2018-11-14T07:05:53.497Z,212
2018-11-14T07:06:53.860Z,224
2018-11-14T07:07:53.345Z,232
2018-11-14T07:08:53.894Z,236
2018-11-14T07:09:53.652Z,244
2018-11-14T07:10:53.802Z,252
2018-11-14T07:11:53.681Z,260
2018-11-14T07:12:53.425Z,268
2018-11-14T07:13:54.000Z,276
2018-11-14T07:14:54.013Z,284
2018-11-14T07:15:53.765Z,292
2018-11-14T07:16:53.507Z,300
2018-11-14T07:17:54.309Z,308
2018-11-14T07:18:53.549Z,316
2018-11-14T07:19:53.845Z,324
2018-11-14T07:20:54.131Z,340
2018-11-14T07:21:53.878Z,356
2018-11-14T07:22:54.171Z,368
2018-11-14T07:23:54.021Z,384
2018-11-14T07:24:54.643Z,396
2018-11-14T07:25:54.246Z,408
2018-11-14T07:26:53.731Z,420
2018-11-14T07:27:54.019Z,428
2018-11-14T07:28:54.035Z,440
2018-11-14T07:29:54.333Z,444
2018-11-14T07:30:54.078Z,444
2018-11-14T07:31:54.142Z,464
2018-11-14T07:32:53.848Z,480
2018-11-14T07:33:54.412Z,492
2018-11-14T07:34:54.421Z,496
2018-11-14T07:35:54.180Z,504
2018-11-14T07:36:54.204Z,508
2018-11-14T07:37:54.789Z,520
2018-11-14T07:38:54.500Z,524
2018-11-14T07:39:54.265Z,528
2018-11-14T07:40:54.004Z,524
2018-11-14T07:41:54.297Z,532
2018-11-14T07:42:54.583Z,548
2018-11-14T07:43:54.845Z,556
2018-11-14T07:44:54.918Z,548
2018-11-14T07:45:54.392Z,560
2018-11-14T07:46:54.680Z,580
2018-11-14T07:47:54.427Z,592
2018-11-14T07:48:54.981Z,604
2018-11-14T07:49:55.123Z,612
2018-11-14T07:50:54.768Z,620
2018-11-14T07:51:54.246Z,624
2018-11-14T07:52:54.541Z,628
2018-11-14T07:53:54.543Z,632
2018-11-14T07:54:54.701Z,624
2018-11-14T07:55:54.320Z,636
2018-11-14T07:56:54.608Z,652
2018-11-14T07:57:54.624Z,660
2018-11-14T07:58:54.916Z,664
2018-11-14T07:59:54.396Z,668
2018-11-14T08:00:54.964Z,672
2018-11-14T08:01:54.441Z,676
2018-11-14T08:02:55.270Z,680
2018-11-14T08:03:54.484Z,680
2018-11-14T08:04:54.769Z,688
2018-11-14T08:05:54.788Z,688
2018-11-14T08:06:54.812Z,696
2018-11-14T08:07:55.117Z,700
2018-11-14T08:08:54.586Z,708
2018-11-14T08:09:54.879Z,712
2018-11-14T08:10:54.636Z,724
2018-11-14T08:11:54.925Z,732
2018-11-14T08:12:54.945Z,740
2018-11-14T08:13:55.223Z,744
2018-11-14T08:14:54.978Z,736
2018-11-14T08:15:55.538Z,732
2018-11-14T08:16:54.752Z,740
2018-11-14T08:17:55.324Z,764
2018-11-14T08:18:55.630Z,768
2018-11-14T08:19:55.076Z,776
2018-11-14T08:20:55.380Z,768
2018-11-14T08:21:55.141Z,768
2018-11-14T08:22:55.148Z,776
2018-11-14T08:23:55.187Z,784
2018-11-14T08:24:54.978Z,780
2018-11-14T08:25:55.480Z,792
2018-11-14T08:26:54.973Z,768
2018-11-14T08:27:55.533Z,788
2018-11-14T08:28:55.827Z,788
2018-11-14T08:29:55.020Z,788
2018-11-14T08:30:55.340Z,768
2018-11-14T08:31:55.606Z,752
2018-11-14T08:32:55.361Z,756
2018-11-14T08:33:55.111Z,744
2018-11-14T08:34:55.665Z,772
2018-11-14T08:35:55.421Z,748
2018-11-14T08:36:55.706Z,744
2018-11-14T08:37:55.194Z,784
2018-11-14T08:38:55.482Z,796
2018-11-14T08:39:55.497Z,812
2018-11-14T08:40:55.571Z,808
2018-11-14T08:41:55.813Z,816
2018-11-14T08:42:55.832Z,824
2018-11-14T08:43:55.873Z,808
2018-11-14T08:44:55.607Z,808
2018-11-14T08:45:55.884Z,816
2018-11-14T08:46:56.194Z,828
2018-11-14T08:47:55.411Z,820
2018-11-14T08:48:55.946Z,836
2018-11-14T08:49:55.437Z,840
2018-11-14T08:50:56.009Z,816
2018-11-14T08:51:55.752Z,792
2018-11-14T08:52:56.305Z,804
2018-11-14T08:53:56.065Z,820
2018-11-14T08:54:56.100Z,824
2018-11-14T08:55:55.850Z,832
2018-11-14T08:56:55.863Z,844
2018-11-14T08:57:55.948Z,856
2018-11-14T08:58:55.908Z,860
2018-11-14T08:59:55.917Z,864
2018-11-14T09:00:55.943Z,868
2018-11-14T09:01:56.222Z,868
2018-11-14T09:02:55.994Z,872
2018-11-14T09:03:56.071Z,876
2018-11-14T09:04:56.018Z,884
2018-11-14T09:05:56.039Z,884
2018-11-14T09:06:56.072Z,892
2018-11-14T09:07:56.330Z,892
2018-11-14T09:08:56.107Z,892
2018-11-14T09:09:56.134Z,900
2018-11-14T09:10:55.892Z,896
2018-11-14T09:11:56.186Z,900
2018-11-14T09:12:57.103Z,900
2018-11-14T09:13:56.209Z,904
2018-11-14T09:14:56.682Z,900
2018-11-14T09:15:56.541Z,900
2018-11-14T09:16:56.558Z,896
2018-11-14T09:17:56.317Z,896
2018-11-14T09:18:56.862Z,896
2018-11-14T09:19:56.337Z,884
2018-11-14T09:20:56.385Z,884
2018-11-14T09:21:56.116Z,876
2018-11-14T09:22:56.419Z,872
2018-11-14T09:23:56.989Z,868
2018-11-14T09:24:56.983Z,864
2018-11-14T09:25:56.743Z,856
2018-11-14T09:26:56.504Z,848
2018-11-14T09:27:56.791Z,848
2018-11-14T09:28:56.541Z,836
2018-11-14T09:29:56.570Z,824
2018-11-14T09:30:56.851Z,808
2018-11-14T09:31:56.591Z,800
2018-11-14T09:32:56.715Z,784
2018-11-14T09:33:56.910Z,788
2018-11-14T09:34:56.931Z,804
2018-11-14T09:35:56.944Z,812
2018-11-14T09:36:56.695Z,812
2018-11-14T09:37:57.004Z,808
2018-11-14T09:38:56.758Z,808
2018-11-14T09:39:56.771Z,804
2018-11-14T09:40:57.393Z,804
2018-11-14T09:41:56.549Z,800
2018-11-14T09:42:57.365Z,788
2018-11-14T09:43:56.656Z,804
2018-11-14T09:44:57.140Z,808
2018-11-14T09:45:56.912Z,804
2018-11-14T09:46:57.191Z,808
2018-11-14T09:47:57.190Z,804
2018-11-14T09:48:56.959Z,808
2018-11-14T09:49:56.708Z,808
2018-11-14T09:50:56.986Z,812
2018-11-14T09:51:57.279Z,812
2018-11-14T09:52:57.083Z,816
2018-11-14T09:53:57.331Z,820
2018-11-14T09:54:57.356Z,816
2018-11-14T09:55:57.092Z,820
2018-11-14T09:56:57.897Z,820
2018-11-14T09:57:56.878Z,816
2018-11-14T09:58:57.161Z,820
2018-11-14T09:59:57.459Z,816
2018-11-14T10:00:57.214Z,820
2018-11-14T10:01:57.231Z,820
2018-11-14T10:02:58.083Z,816
2018-11-14T10:03:57.282Z,820
2018-11-14T10:04:57.031Z,820
2018-11-14T10:05:57.042Z,816
2018-11-14T10:06:57.599Z,816
2018-11-14T10:07:57.117Z,816
2018-11-14T10:08:57.769Z,812
2018-11-14T10:09:57.126Z,816
2018-11-14T10:10:57.862Z,812
2018-11-14T10:11:57.443Z,820
2018-11-14T10:12:57.742Z,816
2018-11-14T10:13:57.223Z,816
2018-11-14T10:14:57.505Z,816
2018-11-14T10:15:57.255Z,808
2018-11-14T10:16:57.548Z,804
2018-11-14T10:17:57.301Z,800
2018-11-14T10:18:58.116Z,800
2018-11-14T10:19:57.602Z,792
2018-11-14T10:20:57.909Z,792
2018-11-14T10:21:57.914Z,788
2018-11-14T10:22:57.667Z,784
2018-11-14T10:23:57.417Z,784
2018-11-14T10:24:58.107Z,784
2018-11-14T10:25:57.989Z,776
2018-11-14T10:26:58.010Z,776
2018-11-14T10:27:58.056Z,776
2018-11-14T10:28:57.797Z,772
2018-11-14T10:29:58.095Z,768
2018-11-14T10:30:57.992Z,772
2018-11-14T10:31:58.128Z,768
2018-11-14T10:32:58.408Z,764
2018-11-14T10:33:58.181Z,760
2018-11-14T10:34:58.463Z,756
2018-11-14T10:35:57.674Z,756
2018-11-14T10:36:57.977Z,760
2018-11-14T10:37:58.529Z,760
2018-11-14T10:38:57.741Z,760
2018-11-14T10:39:57.768Z,756
2018-11-14T10:40:58.059Z,756
2018-11-14T10:41:58.072Z,752
2018-11-14T10:42:58.716Z,752
2018-11-14T10:43:58.709Z,744
2018-11-14T10:44:58.134Z,740
2018-11-14T10:45:58.433Z,744
2018-11-14T10:46:58.175Z,744
2018-11-14T10:47:58.204Z,744
2018-11-14T10:48:58.475Z,740
2018-11-14T10:49:58.517Z,740
2018-11-14T10:50:58.735Z,736
2018-11-14T10:51:58.016Z,736
2018-11-14T10:52:58.572Z,740
2018-11-14T10:53:58.582Z,736
2018-11-14T10:54:58.882Z,740
2018-11-14T10:55:58.367Z,736
2018-11-14T10:56:58.652Z,740
2018-11-14T10:57:58.687Z,732
2018-11-14T10:58:58.699Z,732
2018-11-14T10:59:58.714Z,736
2018-11-14T11:00:58.465Z,740
2018-11-14T11:01:58.496Z,748
2018-11-14T11:02:58.511Z,752
2018-11-14T11:03:58.264Z,752
2018-11-14T11:04:58.277Z,756
2018-11-14T11:05:58.579Z,756
2018-11-14T11:06:58.600Z,760
2018-11-14T11:07:58.738Z,760
2018-11-14T11:08:58.639Z,764
2018-11-14T11:09:58.925Z,760
2018-11-14T11:10:58.680Z,764
2018-11-14T11:11:58.985Z,760
2018-11-14T11:12:58.993Z,756
2018-11-14T11:13:59.356Z,760
2018-11-14T11:14:58.501Z,760
2018-11-14T11:15:59.337Z,760
2018-11-14T11:16:58.556Z,764
2018-11-14T11:17:59.114Z,764
2018-11-14T11:18:58.583Z,764
2018-11-14T11:19:58.879Z,760
2018-11-14T11:20:59.171Z,764
2018-11-14T11:21:58.924Z,772
2018-11-14T11:22:58.936Z,780
2018-11-14T11:23:59.240Z,788
2018-11-14T11:24:59.264Z,796
2018-11-14T11:25:59.280Z,804
2018-11-14T11:26:59.015Z,836
2018-11-14T11:27:59.575Z,896
2018-11-14T11:28:59.623Z,956
2018-11-14T11:29:59.085Z,996
2018-11-14T11:30:59.514Z,1020
2018-11-14T11:31:59.299Z,1012
2018-11-14T11:32:58.877Z,988
2018-11-14T11:33:59.443Z,972
2018-11-14T11:34:59.190Z,960
2018-11-14T11:35:59.210Z,940
2018-11-14T11:36:59.236Z,932
2018-11-14T11:37:59.011Z,892
2018-11-14T11:38:59.005Z,928
2018-11-14T11:39:59.042Z,932
2018-11-14T11:40:59.045Z,788
2018-11-14T11:41:59.068Z,768
2018-11-14T11:42:59.647Z,796
2018-11-14T11:43:59.647Z,808
2018-11-14T11:44:59.833Z,852
2018-11-14T11:45:59.430Z,920
2018-11-14T11:46:59.712Z,820
2018-11-14T11:47:59.733Z,756
2018-11-14T11:49:00.024Z,744
2018-11-14T11:50:00.047Z,752
2018-11-14T11:51:00.404Z,892
2018-11-14T11:51:59.565Z,760
2018-11-14T11:52:59.577Z,800
2018-11-14T11:54:00.145Z,852
2018-11-14T11:54:59.352Z,892
2018-11-14T11:55:59.919Z,904
2018-11-14T11:56:59.944Z,908
2018-11-14T11:57:59.689Z,904
2018-11-14T11:58:59.706Z,896
2018-11-14T11:59:59.796Z,848
2018-11-14T12:00:59.468Z,812
2018-11-14T12:02:00.117Z,876
2018-11-14T12:02:59.794Z,964
2018-11-14T12:04:00.081Z,984
2018-11-14T12:04:59.561Z,1004
2018-11-14T12:06:00.274Z,1012
2018-11-14T12:07:00.407Z,1020
2018-11-14T12:08:00.165Z,1032
2018-11-14T12:09:00.450Z,1064
2018-11-14T12:09:59.679Z,1052
2018-11-14T12:11:00.603Z,1044
2018-11-14T12:11:59.972Z,1052
2018-11-14T12:13:00.362Z,1056
2018-11-14T12:14:00.184Z,1080
2018-11-14T12:15:00.041Z,1088
2018-11-14T12:15:59.798Z,1084
2018-11-14T12:17:00.098Z,1068
2018-11-14T12:18:00.308Z,1060
2018-11-14T12:19:00.257Z,1040
2018-11-14T12:20:00.149Z,1024
2018-11-14T12:21:00.442Z,1028
2018-11-14T12:22:00.183Z,1020
2018-11-14T12:23:00.484Z,1020
2018-11-14T12:24:00.497Z,1016
2018-11-14T12:25:00.699Z,1020
2018-11-14T12:26:00.006Z,1012
2018-11-14T12:27:00.347Z,1008
2018-11-14T12:28:00.587Z,1008
2018-11-14T12:29:00.887Z,1004
2018-11-14T12:30:00.994Z,992
2018-11-14T12:31:01.063Z,988
2018-11-14T12:32:00.421Z,980
2018-11-14T12:33:00.703Z,968
2018-11-14T12:34:00.717Z,972
2018-11-14T12:35:01.003Z,1004
2018-11-14T12:36:00.484Z,1012
2018-11-14T12:37:00.249Z,1008
2018-11-14T12:38:00.796Z,1012
2018-11-14T12:39:00.661Z,1024
2018-11-14T12:40:00.573Z,1028
2018-11-14T12:41:00.872Z,1048
2018-11-14T12:42:00.625Z,1072
2018-11-14T12:43:00.899Z,1080
2018-11-14T12:44:00.410Z,1088
2018-11-14T12:45:00.485Z,1088
2018-11-14T12:46:01.241Z,1080
2018-11-14T12:47:00.462Z,1072
2018-11-14T12:48:00.496Z,1060
2018-11-14T12:49:01.039Z,1060
2018-11-14T12:50:00.808Z,1040
2018-11-14T12:51:01.090Z,1032
2018-11-14T12:52:00.829Z,1020
2018-11-14T12:53:00.860Z,1000
2018-11-14T12:54:00.872Z,976
2018-11-14T12:55:00.891Z,960
2018-11-14T12:56:01.194Z,928
2018-11-14T12:57:01.223Z,900
2018-11-14T12:58:00.967Z,864
2018-11-14T12:59:00.984Z,832
2018-11-14T13:00:01.552Z,808
2018-11-14T13:01:01.029Z,796
2018-11-14T13:02:00.779Z,792
2018-11-14T13:03:01.337Z,784
2018-11-14T13:04:01.364Z,768
2018-11-14T13:05:01.114Z,764
2018-11-14T13:06:01.140Z,752
2018-11-14T13:07:01.686Z,740
2018-11-14T13:08:00.916Z,724
2018-11-14T13:09:01.474Z,712
2018-11-14T13:10:01.506Z,696
2018-11-14T13:11:01.250Z,684
2018-11-14T13:12:01.274Z,672
2018-11-14T13:13:01.287Z,660
2018-11-14T13:14:01.314Z,648
2018-11-14T13:15:01.336Z,636
2018-11-14T13:16:01.624Z,628
2018-11-14T13:17:01.122Z,624
2018-11-14T13:18:01.948Z,616
2018-11-14T13:19:01.720Z,616
2018-11-14T13:20:01.446Z,616
2018-11-14T13:21:01.465Z,612
2018-11-14T13:22:01.480Z,612
2018-11-14T13:23:01.505Z,612
2018-11-14T13:24:01.262Z,608
2018-11-14T13:25:01.545Z,600
2018-11-14T13:26:02.121Z,596
2018-11-14T13:27:01.870Z,588
2018-11-14T13:28:01.768Z,584
2018-11-14T13:29:01.806Z,576
2018-11-14T13:30:01.929Z,564
2018-11-14T13:31:01.686Z,560
2018-11-14T13:32:02.237Z,548
2018-11-14T13:33:01.456Z,548
2018-11-14T13:34:02.014Z,540
2018-11-14T13:35:01.586Z,536
2018-11-14T13:36:01.520Z,532
2018-11-14T13:37:02.082Z,528
2018-11-14T13:38:01.574Z,528
2018-11-14T13:39:02.120Z,520
2018-11-14T13:40:02.231Z,516
2018-11-14T13:41:02.426Z,508
2018-11-14T13:42:02.195Z,508
2018-11-14T13:43:01.755Z,500
2018-11-14T13:44:02.234Z,496
2018-11-14T13:45:01.712Z,484
2018-11-14T13:46:01.741Z,480
2018-11-14T13:47:02.286Z,472
2018-11-14T13:48:02.040Z,468
2018-11-14T13:49:02.892Z,460
2018-11-14T13:50:02.882Z,456
2018-11-14T13:51:03.179Z,448
2018-11-14T13:52:02.402Z,452
2018-11-14T13:53:02.169Z,444
2018-11-14T13:54:02.440Z,444
2018-11-14T13:55:02.203Z,444
2018-11-14T13:56:02.517Z,440
2018-11-14T13:57:01.984Z,436
2018-11-14T13:58:01.988Z,432
2018-11-14T13:59:02.011Z,428
2018-11-14T14:00:02.592Z,424
2018-11-14T14:01:02.902Z,416
2018-11-14T14:02:02.899Z,412
2018-11-14T14:03:02.110Z,412
2018-11-14T14:04:02.661Z,404
2018-11-14T14:05:02.416Z,396
2018-11-14T14:06:02.712Z,392
2018-11-14T14:07:02.473Z,388
2018-11-14T14:08:02.784Z,384
2018-11-14T14:09:02.772Z,380
2018-11-14T14:10:03.067Z,380
2018-11-14T14:11:02.600Z,380
2018-11-14T14:12:02.559Z,376